Airfield :
LOGIN :

Register | Disclaimer

   EN    FR    IT 

 










Legend :    VFR   Marginal VFR   IFR   Intensive IFR   Very Intensive IFR
Visi :
Ceiling :
>= 8 km
>= 3000ft
5 to 8 km
1000 to 3000 ft
1500m to 5 km
500 to 1000 ft
800 to 1500m
200 to 500 ft
< 800m
< 200 ft
Symbols :   Thunderstorms  Fog  Heavy snow  Heavy precipitations  Wind > 20 kt
SIGMETs :     Misc.  Thunderstorms  Icing  Turbulence  Mountain Waves  Volcanic Ashes






- Airport Elevation : 218 ft
- IATA code : LBG


LFPB - Paris / Le Bourget

CURRENT METAR :
  • 101100Z AUTO 17010KT CAVOK 06/02 Q1026 NOSIG

EXPIRED METARs :
  • 101030Z AUTO 17012KT CAVOK 05/02 Q1026 NOSIG
  • 101000Z AUTO 18008KT CAVOK 05/02 Q1027 NOSIG
  • 100930Z AUTO 17008KT CAVOK 04/02 Q1027 NOSIG
  • 100900Z AUTO 16006KT CAVOK 02/00 Q1027 NOSIG
  • 100830Z AUTO 14006KT CAVOK 02/00 Q1027 NOSIG

TAF TAF LFPB
Valid from the 10 at 06:00 until the 11 at 06:00 UTC


100500Z 1006/1106 19005KT CAVOK
BECMG 1015/1017 19015G25KT
BECMG 1017/1019 4000 -RA BKN012
TEMPO 1101/1104 2500 RA BKN008
BECMG 1104/1106 22007KT 6000 NSW BKN020
ATIS : +33 1 48 62 43 92



MET'MAP, your aeronautical weather chart ! - Copyright ORBIFLY December 2007 - Disclaimer

ORBIFLY MET'MAP TEAM :

Programming & Development : Alexandra Zaïnal
Concept & original design : Baudouin d'Aumeries
Assistance for programming : Marc-Olivier Méhu
Technical & hardware support : Manuel Goepfert

Contact : metmap@orbifly.com




SOURCES & CREDITS :

   NOAA